createdAt,value
2022-10-06T00:01:12.647Z,11.30
2022-10-06T00:06:21.777Z,11.10
2022-10-06T00:11:30.215Z,11.10
2022-10-06T00:16:38.361Z,11.20
2022-10-06T00:21:44.997Z,11.30
2022-10-06T00:26:53.446Z,11.20
2022-10-06T00:32:02.828Z,11.00
2022-10-06T00:37:10.416Z,11.00
2022-10-06T00:42:30.456Z,11.10
2022-10-06T00:47:39.302Z,11.20
2022-10-06T00:52:47.074Z,11.30
2022-10-06T00:57:56.046Z,11.30
2022-10-06T01:03:12.768Z,11.50
2022-10-06T01:08:25.274Z,11.40
2022-10-06T01:13:33.506Z,11.30
2022-10-06T01:18:43.486Z,11.20
2022-10-06T01:23:50.632Z,11.30
2022-10-06T01:28:58.764Z,11.30
2022-10-06T01:34:05.960Z,11.30
2022-10-06T01:39:12.664Z,11.40
2022-10-06T01:44:19.326Z,11.30
2022-10-06T01:49:26.150Z,11.50
2022-10-06T01:54:34.356Z,11.20
2022-10-06T01:59:42.536Z,11.40
2022-10-06T02:04:50.202Z,11.40
2022-10-06T02:09:56.920Z,11.30
2022-10-06T02:15:05.338Z,11.40
2022-10-06T02:20:12.783Z,11.30
2022-10-06T02:25:22.414Z,11.30
2022-10-06T02:30:29.126Z,11.30
2022-10-06T02:35:35.801Z,11.20
2022-10-06T02:40:43.091Z,11.20
2022-10-06T02:45:57.970Z,11.30
2022-10-06T02:51:09.153Z,11.40
2022-10-06T02:56:22.810Z,11.40
2022-10-06T03:01:33.508Z,11.30
2022-10-06T03:06:42.242Z,11.30
2022-10-06T03:11:49.080Z,11.40
2022-10-06T03:16:57.221Z,11.40
2022-10-06T03:22:06.175Z,11.40
2022-10-06T03:27:13.306Z,11.40
2022-10-06T03:32:22.660Z,11.40
2022-10-06T03:37:31.364Z,11.30
2022-10-06T03:42:39.457Z,11.20
2022-10-06T03:47:46.283Z,11.30
2022-10-06T03:52:56.352Z,11.30
2022-10-06T03:58:03.196Z,11.30
2022-10-06T04:03:12.168Z,11.20
2022-10-06T04:08:19.246Z,11.20
2022-10-06T04:13:29.641Z,11.20
2022-10-06T04:18:39.488Z,11.20
2022-10-06T04:23:46.263Z,11.10
2022-10-06T04:28:56.124Z,11.20
2022-10-06T04:34:05.449Z,11.20
2022-10-06T04:39:18.094Z,11.20
2022-10-06T04:44:26.106Z,11.30
2022-10-06T04:49:33.336Z,11.40
2022-10-06T04:54:42.901Z,11.40
2022-10-06T05:00:10.060Z,11.40
2022-10-06T05:05:16.853Z,11.50
2022-10-06T05:10:23.711Z,11.60
2022-10-06T05:15:31.002Z,11.50
2022-10-06T05:20:37.681Z,11.50
2022-10-06T05:25:54.472Z,11.50
2022-10-06T05:31:07.850Z,11.40
2022-10-06T05:36:23.568Z,11.80
2022-10-06T05:41:33.624Z,11.70
2022-10-06T05:46:40.333Z,11.70
2022-10-06T05:51:47.069Z,11.80
2022-10-06T05:56:53.753Z,11.90
2022-10-06T06:02:00.539Z,12.00
2022-10-06T06:07:09.889Z,12.00
2022-10-06T06:12:16.626Z,12.10
2022-10-06T06:17:23.296Z,12.20
2022-10-06T06:22:31.102Z,12.30
2022-10-06T06:27:39.431Z,12.30
2022-10-06T06:32:46.464Z,12.40
2022-10-06T06:37:53.147Z,12.50
2022-10-06T06:42:59.827Z,12.50
2022-10-06T06:48:07.383Z,12.50
2022-10-06T06:53:16.287Z,12.50
2022-10-06T06:58:23.618Z,12.50
2022-10-06T07:03:56.191Z,12.40
2022-10-06T07:08:43.655Z,12.50
2022-10-06T07:13:58.275Z,12.60
2022-10-06T07:19:25.283Z,12.70
2022-10-06T07:24:51.071Z,12.80
2022-10-06T07:29:58.749Z,13.00
2022-10-06T07:35:07.065Z,13.00
2022-10-06T07:40:15.592Z,13.00
2022-10-06T07:45:42.461Z,13.20
2022-10-06T07:50:54.119Z,13.40
2022-10-06T07:56:08.886Z,13.50
2022-10-06T08:01:19.637Z,13.60
2022-10-06T08:06:27.267Z,13.70
2022-10-06T08:11:34.264Z,13.90
2022-10-06T08:16:40.975Z,14.10
2022-10-06T08:21:47.663Z,14.20
2022-10-06T08:26:54.356Z,14.30
2022-10-06T08:32:01.855Z,14.70
2022-10-06T08:37:19.819Z,14.80
2022-10-06T08:42:21.282Z,15.00
2022-10-06T08:47:33.077Z,15.40
2022-10-06T08:52:45.859Z,15.40
2022-10-06T08:58:33.334Z,15.30
2022-10-06T09:03:40.178Z,15.30
2022-10-06T09:08:54.142Z,15.40
2022-10-06T09:14:27.378Z,15.60
2022-10-06T09:19:47.353Z,15.70
2022-10-06T09:25:00.557Z,15.80
2022-10-06T09:30:10.215Z,16.10
2022-10-06T09:35:26.684Z,16.20
2022-10-06T09:40:55.811Z,16.90
2022-10-06T09:46:23.186Z,16.90
2022-10-06T09:51:31.446Z,17.00
2022-10-06T09:56:43.966Z,16.70
2022-10-06T10:01:59.517Z,16.90
2022-10-06T10:07:27.280Z,16.80
2022-10-06T10:12:36.146Z,16.90
2022-10-06T10:17:52.590Z,16.80
2022-10-06T10:23:03.649Z,17.10
2022-10-06T10:28:19.168Z,17.20
2022-10-06T10:33:54.030Z,17.30
2022-10-06T10:38:55.323Z,17.20
2022-10-06T10:44:12.893Z,17.50
2022-10-06T10:49:30.876Z,17.70
2022-10-06T10:55:27.513Z,17.50
2022-10-06T11:00:37.463Z,17.50
2022-10-06T11:06:08.103Z,18.20
2022-10-06T11:11:38.557Z,18.50
2022-10-06T11:17:00.270Z,18.40
2022-10-06T11:22:30.459Z,18.40
2022-10-06T11:28:04.207Z,18.70
2022-10-06T11:33:21.052Z,18.90
2022-10-06T11:38:42.753Z,18.60
2022-10-06T11:44:05.596Z,18.60
2022-10-06T11:49:34.773Z,18.30
2022-10-06T11:54:45.977Z,18.60
2022-10-06T11:59:56.057Z,18.70
2022-10-06T12:05:54.949Z,18.50
2022-10-06T12:10:34.567Z,18.70
2022-10-06T12:21:42.364Z,19.00
2022-10-06T12:27:05.066Z,19.30
2022-10-06T12:32:34.350Z,19.20
2022-10-06T12:37:54.226Z,19.30
2022-10-06T12:43:27.603Z,19.20
2022-10-06T12:48:41.641Z,19.30
2022-10-06T12:53:58.618Z,19.40
2022-10-06T12:59:38.772Z,19.40
2022-10-06T13:04:58.856Z,19.50
2022-10-06T13:10:22.998Z,19.10
2022-10-06T13:15:37.566Z,19.10
2022-10-06T13:20:58.730Z,18.80
2022-10-06T13:26:18.533Z,19.30
2022-10-06T13:31:36.126Z,19.10
2022-10-06T13:36:47.316Z,19.00
2022-10-06T13:42:12.066Z,18.90
2022-10-06T13:47:23.626Z,19.00
2022-10-06T13:52:52.774Z,18.80
2022-10-06T13:58:09.441Z,18.60
2022-10-06T14:03:29.288Z,18.50
2022-10-06T14:08:38.622Z,18.40
2022-10-06T14:14:07.570Z,18.40
2022-10-06T14:19:35.449Z,18.30
2022-10-06T14:24:49.233Z,18.30
2022-10-06T14:29:58.761Z,18.50
2022-10-06T14:35:08.580Z,18.30
2022-10-06T14:40:17.875Z,18.40
2022-10-06T14:45:25.629Z,18.20
2022-10-06T14:50:36.490Z,18.10
2022-10-06T14:55:52.013Z,18.20
2022-10-06T15:01:02.329Z,18.00
2022-10-06T15:06:37.040Z,17.90
2022-10-06T15:11:46.846Z,17.80
2022-10-06T15:16:56.782Z,17.80
2022-10-06T15:22:07.432Z,17.70
2022-10-06T15:27:33.443Z,17.50
2022-10-06T15:32:42.287Z,17.30
2022-10-06T15:37:51.633Z,17.30
2022-10-06T15:43:02.436Z,17.30
2022-10-06T15:48:15.028Z,17.40
2022-10-06T15:53:24.146Z,17.40
2022-10-06T15:58:30.816Z,17.20
2022-10-06T16:03:41.316Z,17.10
2022-10-06T16:08:51.374Z,16.80
2022-10-06T16:14:02.467Z,16.60
2022-10-06T16:19:10.373Z,16.40
2022-10-06T16:24:25.471Z,16.30
2022-10-06T16:29:35.400Z,16.00
2022-10-06T16:34:42.125Z,16.00
2022-10-06T16:39:48.932Z,15.80
2022-10-06T16:44:56.201Z,15.60
2022-10-06T16:50:04.712Z,15.50
2022-10-06T16:55:11.617Z,15.40
2022-10-06T17:00:20.937Z,15.30
2022-10-06T17:05:29.339Z,15.20
2022-10-06T17:10:40.021Z,15.10
2022-10-06T17:15:46.453Z,15.00
2022-10-06T17:21:00.117Z,15.00
2022-10-06T17:26:18.859Z,15.00
2022-10-06T17:31:34.655Z,14.90
2022-10-06T17:36:50.103Z,14.80
2022-10-06T17:41:58.111Z,14.80
2022-10-06T17:47:06.627Z,14.80
2022-10-06T17:52:14.152Z,14.80
2022-10-06T17:57:28.835Z,14.60
2022-10-06T18:02:35.806Z,14.60
2022-10-06T18:07:43.701Z,14.50
2022-10-06T18:12:51.965Z,14.40
2022-10-06T18:18:00.108Z,14.50
2022-10-06T18:23:10.139Z,14.40
2022-10-06T18:28:17.350Z,14.30
2022-10-06T18:38:41.952Z,14.20
2022-10-06T18:43:48.651Z,14.10
2022-10-06T18:48:56.526Z,14.10
2022-10-06T18:54:08.673Z,14.10
2022-10-06T18:59:17.182Z,13.90
2022-10-06T19:04:26.453Z,13.90
2022-10-06T19:09:33.162Z,13.90
2022-10-06T19:14:41.658Z,14.10
2022-10-06T19:19:51.724Z,13.90
2022-10-06T19:25:00.483Z,13.80
2022-10-06T19:30:08.171Z,13.80
2022-10-06T19:35:15.063Z,13.70
2022-10-06T19:40:21.763Z,13.70
2022-10-06T19:45:28.474Z,13.60
2022-10-06T19:50:37.383Z,13.60
2022-10-06T19:55:46.296Z,13.60
2022-10-06T20:00:52.978Z,13.50
2022-10-06T20:06:06.097Z,13.50
2022-10-06T20:11:17.391Z,13.60
2022-10-06T20:16:26.228Z,13.50
2022-10-06T20:21:36.507Z,13.50
2022-10-06T20:26:48.744Z,13.40
2022-10-06T20:32:02.329Z,13.40
2022-10-06T20:37:12.517Z,13.30
2022-10-06T20:42:22.483Z,13.20
2022-10-06T20:47:35.589Z,13.20
2022-10-06T20:52:42.995Z,13.10
2022-10-06T20:57:51.688Z,13.10
2022-10-06T21:02:59.597Z,13.20
2022-10-06T21:08:10.662Z,13.00
2022-10-06T21:13:18.193Z,13.10
2022-10-06T21:18:31.047Z,12.90
2022-10-06T21:23:45.362Z,12.90
2022-10-06T21:28:54.721Z,12.90
2022-10-06T21:34:02.878Z,12.90
2022-10-06T21:39:11.523Z,12.90
2022-10-06T21:44:23.151Z,12.80
2022-10-06T21:49:30.605Z,12.80
2022-10-06T21:54:38.790Z,12.70
2022-10-06T21:59:46.271Z,12.70
2022-10-06T22:04:53.151Z,12.70
2022-10-06T22:10:03.070Z,12.70
2022-10-06T22:15:11.172Z,12.60
2022-10-06T22:20:18.565Z,12.70
2022-10-06T22:25:29.171Z,12.70
2022-10-06T22:30:39.712Z,12.70
2022-10-06T22:35:55.079Z,12.80
2022-10-06T22:41:07.527Z,12.60
2022-10-06T22:46:17.484Z,12.50
2022-10-06T22:51:25.050Z,12.30
2022-10-06T22:56:36.175Z,12.50
2022-10-06T23:01:43.932Z,12.40
2022-10-06T23:06:52.443Z,12.40
2022-10-06T23:11:59.320Z,12.40
2022-10-06T23:17:06.880Z,12.40
2022-10-06T23:22:14.371Z,12.30
2022-10-06T23:27:22.537Z,12.40
2022-10-06T23:32:29.505Z,12.30
2022-10-06T23:37:38.316Z,12.30
2022-10-06T23:42:45.824Z,12.20
2022-10-06T23:47:59.337Z,12.20
2022-10-06T23:53:06.941Z,12.30
2022-10-06T23:58:15.232Z,12.30
